createdAt,value
2023-02-23T05:00:33.543Z,41.30
2023-02-23T05:11:38.445Z,72.70
2023-02-23T05:22:38.267Z,76.80
2023-02-23T05:33:38.154Z,63.00
2023-02-23T05:44:38.036Z,72.50
2023-02-23T05:55:37.894Z,66.80
2023-02-23T06:06:37.785Z,63.40
2023-02-23T06:17:37.653Z,59.10
2023-02-23T06:28:37.542Z,57.30
2023-02-23T06:39:37.422Z,53.10
2023-02-23T06:50:37.292Z,42.20
2023-02-23T07:01:37.187Z,33.00
2023-02-23T07:12:37.044Z,33.00
2023-02-23T07:23:36.958Z,38.90
2023-02-23T07:34:36.808Z,32.30
2023-02-23T07:45:36.711Z,33.20
2023-02-23T07:56:36.552Z,39.00
2023-02-23T08:07:36.429Z,38.20
2023-02-23T08:18:36.408Z,27.50
2023-02-23T08:29:36.197Z,32.80
2023-02-23T08:40:36.100Z,43.00
2023-02-23T08:51:35.930Z,24.00
2023-02-23T09:02:35.804Z,30.70
2023-02-23T09:13:35.682Z,28.50
2023-02-23T09:24:35.557Z,22.20
2023-02-23T09:35:35.450Z,19.70
2023-02-23T09:46:35.333Z,26.00
2023-02-23T09:57:35.192Z,17.20
2023-02-23T10:08:35.077Z,23.70
2023-02-23T10:19:35.948Z,16.00
2023-02-23T10:30:34.905Z,26.10
2023-02-23T10:41:34.716Z,19.10
2023-02-23T10:52:34.625Z,21.80
2023-02-23T11:03:34.547Z,19.60
2023-02-23T11:14:34.325Z,14.80
2023-02-23T11:25:34.200Z,13.90
2023-02-23T11:36:34.078Z,20.10
2023-02-23T11:47:33.972Z,15.30
2023-02-23T11:58:33.849Z,19.00
2023-02-23T12:09:33.764Z,13.80
2023-02-23T12:20:33.599Z,11.90
2023-02-23T12:31:33.470Z,13.60
2023-02-23T12:42:33.354Z,14.70
2023-02-23T12:53:33.215Z,12.30
2023-02-23T13:04:33.110Z,11.50
2023-02-23T13:15:33.019Z,12.00
2023-02-23T13:26:32.862Z,11.10
2023-02-23T13:37:32.736Z,12.90
2023-02-23T13:48:32.605Z,15.50
2023-02-23T13:59:32.548Z,11.80
2023-02-23T14:10:32.363Z,13.50
2023-02-23T14:21:32.260Z,12.60
2023-02-23T14:32:32.299Z,18.40
2023-02-23T14:43:31.990Z,8.60
2023-02-23T14:54:31.872Z,8.70
2023-02-23T15:05:31.753Z,11.70
2023-02-23T15:16:31.718Z,10.10
2023-02-23T15:27:31.493Z,9.70
2023-02-23T15:38:43.086Z,12.20
2023-02-23T15:49:31.275Z,6.00
2023-02-23T16:00:31.123Z,5.40
2023-02-23T16:11:31.043Z,10.50
2023-02-23T16:22:30.911Z,5.10
2023-02-23T16:33:30.812Z,8.10
2023-02-23T16:44:42.891Z,13.00
2023-02-23T16:55:30.610Z,6.20
2023-02-23T17:06:30.428Z,7.30
2023-02-23T17:17:30.290Z,13.40
2023-02-23T17:28:30.157Z,9.60
2023-02-23T17:39:30.039Z,15.00
2023-02-23T17:50:29.925Z,8.10
2023-02-23T18:01:29.881Z,8.40
2023-02-23T18:12:29.949Z,12.10
2023-02-23T18:23:29.531Z,11.40
2023-02-23T18:34:29.404Z,12.20
2023-02-23T18:45:29.285Z,12.50
2023-02-23T18:56:29.196Z,12.90
2023-02-23T19:07:29.048Z,16.00
2023-02-23T19:18:28.936Z,18.30
2023-02-23T19:29:28.798Z,19.10
2023-02-23T19:40:28.665Z,13.80
2023-02-23T19:51:28.546Z,16.30
2023-02-23T20:02:28.448Z,16.70
2023-02-23T20:13:28.313Z,15.50
2023-02-23T20:24:28.176Z,24.10
2023-02-23T20:35:28.048Z,27.00
2023-02-23T20:46:28.024Z,16.30
2023-02-23T20:57:27.807Z,17.30
2023-02-23T21:08:27.700Z,19.40
2023-02-23T21:19:27.576Z,16.20
2023-02-23T21:30:27.453Z,16.00
2023-02-23T21:41:27.336Z,24.80
2023-02-23T21:52:27.195Z,20.80
